Time;durP1;ratioP1;P1;durP2;ratioP2;P2;SDS_P1;SDS_P2;PMS_P1;PMS_P2;Temp;Humidity;BMP_temperature;BMP_pressure;BME280_temperature;BME280_humidity;BME280_pressure;Samples;Min_cycle;Max_cycle;Signal;HPM_P1;HPM_P2
2022/06/28 00:00:38;;;;;;;0.00;0.00;;;18.90;99.90;;;;;;4995006;28;20072;-68
2022/06/28 00:03:04;;;;;;;0.00;0.00;;;18.90;99.90;;;;;;4994482;28;20370;-68
2022/06/28 00:05:30;;;;;;;0.35;0.30;;;18.70;99.90;;;;;;4993548;28;20042;-67
2022/06/28 00:07:55;;;;;;;0.00;0.00;;;18.60;99.90;;;;;;4993449;28;20026;-68
2022/06/28 00:10:21;;;;;;;0.00;0.00;;;18.60;99.90;;;;;;4993148;28;20130;-68
2022/06/28 00:12:47;;;;;;;0.20;0.15;;;18.30;99.90;;;;;;4993358;28;20035;-68
2022/06/28 00:17:59;;;;;;;0.00;0.00;;;18.20;99.90;;;;;;4994628;28;20026;-68
2022/06/28 00:20:26;;;;;;;0.00;0.00;;;18.10;99.90;;;;;;4993293;28;20030;-67
2022/06/28 00:22:52;;;;;;;0.85;0.43;;;18.00;99.90;;;;;;4993135;28;20030;-68
2022/06/28 00:25:17;;;;;;;0.00;0.00;;;17.90;99.90;;;;;;4994255;28;20077;-68
2022/06/28 00:27:43;;;;;;;0.00;0.00;;;17.90;99.90;;;;;;4994428;28;20497;-68
2022/06/28 00:30:10;;;;;;;0.00;0.00;;;17.80;99.90;;;;;;4993995;28;20050;-67
2022/06/28 00:32:36;;;;;;;5.47;0.35;;;17.70;99.90;;;;;;4992791;28;20113;-68
2022/06/28 00:35:04;;;;;;;0.00;0.00;;;17.80;99.90;;;;;;4993049;28;20070;-68
2022/06/28 00:37:30;;;;;;;0.03;0.03;;;17.70;99.90;;;;;;4976787;28;20030;-68
2022/06/28 00:39:56;;;;;;;0.22;0.22;;;17.70;99.90;;;;;;4993035;28;20030;-67
2022/06/28 00:42:22;;;;;;;0.75;0.28;;;17.60;99.90;;;;;;4993636;28;20389;-68
2022/06/28 00:44:51;;;;;;;0.15;0.15;;;17.60;99.90;;;;;;4993193;28;20037;-68
2022/06/28 00:47:18;;;;;;;0.00;0.00;;;17.50;99.90;;;;;;4993069;28;20030;-68
2022/06/28 00:49:44;;;;;;;0.00;0.00;;;17.40;99.90;;;;;;4992776;28;20029;-68
2022/06/28 00:52:13;;;;;;;0.10;0.10;;;17.50;99.90;;;;;;4992161;28;20026;-68
2022/06/28 00:54:39;;;;;;;0.00;0.00;;;17.40;99.90;;;;;;4992771;28;20026;-68
2022/06/28 00:57:06;;;;;;;0.05;0.00;;;17.30;99.90;;;;;;4992517;28;20034;-68
2022/06/28 00:59:33;;;;;;;0.00;0.00;;;17.30;99.90;;;;;;4976564;28;20037;-67
2022/06/28 01:02:00;;;;;;;0.00;0.00;;;17.30;99.90;;;;;;4992280;28;20026;-68
2022/06/28 01:04:27;;;;;;;0.00;0.00;;;17.20;99.90;;;;;;4991915;28;20049;-67
2022/06/28 01:06:53;;;;;;;2.08;0.17;;;17.10;99.90;;;;;;4994280;28;20049;-67
2022/06/28 01:09:20;;;;;;;0.00;0.00;;;17.00;99.90;;;;;;4992086;28;20440;-68
2022/06/28 01:11:46;;;;;;;0.00;0.00;;;16.90;99.90;;;;;;4996498;28;20429;-68
2022/06/28 01:14:12;;;;;;;0.00;0.00;;;16.80;99.90;;;;;;5012845;28;20030;-68
2022/06/28 01:16:38;;;;;;;6.97;1.55;;;16.80;99.90;;;;;;4996641;28;20134;-68
2022/06/28 01:19:07;;;;;;;0.00;0.00;;;16.70;99.90;;;;;;4992513;28;20081;-68
2022/06/28 01:21:37;;;;;;;0.95;0.88;;;16.70;99.90;;;;;;4992026;28;20077;-67
2022/06/28 01:24:04;;;;;;;0.10;0.10;;;16.60;99.90;;;;;;4998704;28;20088;-67
2022/06/28 01:26:30;;;;;;;0.00;0.00;;;16.70;99.90;;;;;;5011599;28;20026;-67
2022/06/28 01:28:56;;;;;;;0.10;0.05;;;16.70;99.90;;;;;;5010971;28;20080;-68
2022/06/28 01:31:24;;;;;;;1.00;0.30;;;16.80;99.90;;;;;;5011420;28;20030;-67
2022/06/28 01:33:52;;;;;;;0.10;0.10;;;16.70;99.90;;;;;;5012390;28;20504;-67
2022/06/28 01:36:18;;;;;;;0.60;0.35;;;16.60;99.90;;;;;;5012568;28;20060;-68
2022/06/28 01:38:44;;;;;;;0.15;0.15;;;16.60;99.90;;;;;;5011661;28;20042;-67
2022/06/28 01:41:32;;;;;;;0.00;0.00;;;16.60;99.90;;;;;;5004952;28;20065;-68
2022/06/28 01:44:00;;;;;;;0.03;0.03;;;16.50;99.90;;;;;;4991115;28;20034;-68
2022/06/28 01:46:27;;;;;;;0.05;0.05;;;16.50;99.90;;;;;;4992620;28;20038;-68
2022/06/28 01:48:54;;;;;;;0.00;0.00;;;16.50;99.90;;;;;;4991618;28;20035;-68
2022/06/28 01:51:20;;;;;;;0.13;0.10;;;16.30;99.90;;;;;;4991748;28;20030;-68
2022/06/28 01:53:45;;;;;;;0.10;0.10;;;16.30;99.90;;;;;;4992387;28;20033;-68
2022/06/28 01:56:11;;;;;;;0.00;0.00;;;16.40;99.90;;;;;;4992472;28;20513;-68
2022/06/28 01:58:39;;;;;;;0.10;0.10;;;16.30;99.90;;;;;;4991272;28;20030;-68
2022/06/28 02:01:08;;;;;;;0.00;0.00;;;16.30;99.90;;;;;;4991779;28;20038;-69
2022/06/28 02:03:34;;;;;;;0.20;0.20;;;16.30;99.90;;;;;;4991114;28;20062;-68
2022/06/28 02:06:00;;;;;;;0.32;0.32;;;16.30;99.90;;;;;;4991168;28;20076;-67
2022/06/28 02:08:25;;;;;;;0.00;0.00;;;16.20;99.90;;;;;;4991319;28;20026;-67
2022/06/28 02:10:51;;;;;;;0.00;0.00;;;16.20;99.90;;;;;;4992352;28;20500;-68
2022/06/28 02:13:17;;;;;;;0.20;0.20;;;16.20;99.90;;;;;;4991851;28;20037;-68
2022/06/28 02:15:43;;;;;;;0.10;0.10;;;16.10;99.90;;;;;;5003280;28;20033;-68
2022/06/28 02:18:08;;;;;;;0.10;0.10;;;16.10;99.90;;;;;;5011745;28;20524;-67
2022/06/28 02:20:34;;;;;;;0.32;0.32;;;16.10;99.90;;;;;;5011915;28;20087;-68
2022/06/28 02:23:00;;;;;;;1.45;0.63;;;16.10;99.90;;;;;;5026742;28;20062;-68
2022/06/28 02:25:26;;;;;;;0.10;0.10;;;16.10;99.90;;;;;;5010380;28;20044;-67
2022/06/28 02:27:51;;;;;;;0.20;0.17;;;16.00;99.90;;;;;;5011711;28;20063;-67
2022/06/28 02:30:17;;;;;;;0.20;0.20;;;16.00;99.90;;;;;;5011561;28;20100;-67
2022/06/28 02:32:43;;;;;;;0.00;0.00;;;16.00;99.90;;;;;;5010114;28;20022;-68
2022/06/28 02:40:37;;;;;;;0.10;0.10;;;16.30;99.90;;;;;;5010631;28;20030;-67
2022/06/28 02:43:03;;;;;;;0.28;0.28;;;16.30;99.90;;;;;;5011336;28;20076;-68
2022/06/28 02:45:32;;;;;;;0.17;0.10;;;16.10;99.90;;;;;;5011118;28;20026;-67
2022/06/28 02:47:58;;;;;;;0.00;0.00;;;16.10;99.90;;;;;;5010512;28;20088;-68
2022/06/28 02:50:24;;;;;;;0.00;0.00;;;16.00;99.90;;;;;;5011520;28;20022;-67
2022/06/28 02:52:51;;;;;;;0.00;0.00;;;16.00;99.90;;;;;;5009881;28;20022;-68
2022/06/28 02:55:17;;;;;;;0.00;0.00;;;15.90;99.90;;;;;;5010538;28;20030;-67
2022/06/28 02:57:43;;;;;;;0.10;0.10;;;15.90;99.90;;;;;;5010308;28;20079;-68
2022/06/28 03:00:13;;;;;;;0.10;0.10;;;15.70;99.90;;;;;;5011326;28;20034;-68
2022/06/28 03:02:40;;;;;;;0.20;0.20;;;15.70;99.90;;;;;;5005548;28;20074;-68
2022/06/28 03:05:13;;;;;;;0.10;0.10;;;15.60;99.90;;;;;;4991267;28;20297;-68
2022/06/28 03:07:39;;;;;;;1.35;0.80;;;15.60;99.90;;;;;;4994420;28;20385;-68
2022/06/28 03:10:08;;;;;;;0.00;0.00;;;15.50;99.90;;;;;;5001397;28;20470;-68
2022/06/28 03:12:33;;;;;;;0.00;0.00;;;15.50;99.90;;;;;;5001092;28;20466;-68
2022/06/28 03:14:59;;;;;;;0.73;0.15;;;15.50;99.90;;;;;;5006091;28;20058;-68
2022/06/28 03:17:25;;;;;;;0.05;0.05;;;15.50;99.90;;;;;;5007018;28;20033;-68
2022/06/28 03:19:51;;;;;;;0.00;0.00;;;15.50;99.90;;;;;;5010082;28;20038;-69
2022/06/28 03:22:17;;;;;;;0.17;0.17;;;15.50;99.90;;;;;;5009540;28;20022;-68
2022/06/28 03:24:43;;;;;;;0.10;0.10;;;15.30;99.90;;;;;;5005543;28;20053;-68
2022/06/28 03:27:09;;;;;;;0.10;0.10;;;15.30;99.90;;;;;;4991366;28;20072;-68
2022/06/28 03:29:35;;;;;;;4.35;1.88;;;15.20;99.90;;;;;;4991483;28;20509;-68
2022/06/28 03:32:01;;;;;;;0.68;0.38;;;15.20;99.90;;;;;;4991545;28;20030;-69
2022/06/28 03:34:26;;;;;;;0.10;0.10;;;15.20;99.90;;;;;;4991133;28;20030;-68
2022/06/28 03:36:52;;;;;;;0.17;0.17;;;15.10;99.90;;;;;;4991768;28;20066;-69
2022/06/28 03:39:18;;;;;;;0.00;0.00;;;15.10;99.90;;;;;;4991450;28;20084;-69
2022/06/28 03:41:44;;;;;;;0.10;0.10;;;15.20;99.90;;;;;;4996689;28;20032;-68
2022/06/28 03:44:10;;;;;;;0.13;0.13;;;15.20;99.90;;;;;;5010632;28;20030;-68
2022/06/28 03:46:36;;;;;;;0.45;0.22;;;15.20;99.90;;;;;;5023479;23;20042;-68
2022/06/28 03:49:02;;;;;;;0.00;0.00;;;15.30;99.90;;;;;;5009446;28;20022;-68
2022/06/28 03:51:28;;;;;;;1.55;0.38;;;15.20;99.90;;;;;;5010700;28;20037;-68
2022/06/28 03:53:53;;;;;;;0.10;0.10;;;15.20;99.90;;;;;;5008811;28;20505;-68
2022/06/28 03:56:19;;;;;;;0.30;0.30;;;15.30;99.90;;;;;;5009766;28;20041;-68
2022/06/28 03:58:45;;;;;;;0.10;0.10;;;15.30;99.90;;;;;;5009603;28;20049;-68
2022/06/28 04:01:11;;;;;;;0.38;0.32;;;15.30;99.90;;;;;;5009578;28;20030;-68
2022/06/28 04:03:36;;;;;;;0.57;0.57;;;15.30;99.90;;;;;;5010145;28;20056;-69
2022/06/28 04:06:03;;;;;;;0.10;0.10;;;15.40;99.90;;;;;;5005649;28;20030;-69
2022/06/28 04:08:29;;;;;;;0.73;0.28;;;15.40;99.90;;;;;;5006727;28;20033;-70
2022/06/28 04:11:13;;;;;;;0.03;0.03;;;15.40;99.90;;;;;;5012909;28;20113;-69
2022/06/28 04:13:42;;;;;;;0.35;0.35;;;15.40;99.90;;;;;;4998290;28;20029;-70
2022/06/28 04:16:08;;;;;;;1.45;0.80;;;15.40;99.90;;;;;;4997686;28;20025;-70
2022/06/28 04:18:34;;;;;;;0.00;0.00;;;15.40;99.90;;;;;;5016047;28;20048;-68
2022/06/28 04:21:00;;;;;;;0.70;0.43;;;15.40;99.90;;;;;;5032024;28;20037;-68
2022/06/28 04:23:26;;;;;;;0.52;0.40;;;15.50;99.90;;;;;;5032938;28;20056;-68
2022/06/28 04:25:52;;;;;;;0.38;0.38;;;15.60;99.90;;;;;;5031989;28;20135;-68
2022/06/28 04:28:18;;;;;;;0.00;0.00;;;15.70;99.90;;;;;;5032982;28;20033;-68
2022/06/28 04:30:44;;;;;;;0.43;0.32;;;15.70;99.90;;;;;;5031863;28;20026;-69
2022/06/28 04:33:10;;;;;;;0.80;0.52;;;15.70;99.90;;;;;;5032824;28;20104;-69
2022/06/28 04:35:35;;;;;;;0.30;0.30;;;15.70;99.90;;;;;;5032883;28;20033;-69
2022/06/28 04:38:01;;;;;;;1.20;0.47;;;15.80;99.90;;;;;;5015462;28;20030;-68
2022/06/28 04:40:28;;;;;;;0.35;0.22;;;15.90;99.90;;;;;;4996158;28;20474;-69
2022/06/28 04:42:54;;;;;;;0.30;0.30;;;16.00;99.90;;;;;;5011815;28;20033;-69
2022/06/28 04:45:20;;;;;;;0.65;0.65;;;16.00;99.90;;;;;;5012186;28;20025;-67
2022/06/28 04:47:47;;;;;;;0.00;0.00;;;16.20;99.90;;;;;;4984029;28;20041;-69
2022/06/28 04:50:13;;;;;;;0.00;0.00;;;16.30;99.90;;;;;;5013046;28;20014;-70
2022/06/28 04:52:39;;;;;;;0.10;0.10;;;16.30;99.90;;;;;;5011355;28;20105;-69
2022/06/28 04:55:06;;;;;;;0.00;0.00;;;16.40;99.90;;;;;;4995259;28;20105;-70
2022/06/28 04:57:31;;;;;;;0.05;0.05;;;16.40;99.90;;;;;;5011646;28;20034;-70
2022/06/28 04:59:57;;;;;;;0.43;0.43;;;16.40;99.90;;;;;;5012449;28;20075;-69
2022/06/28 05:02:23;;;;;;;0.20;0.20;;;16.40;99.90;;;;;;5027722;28;20088;-71
2022/06/28 05:04:49;;;;;;;0.00;0.00;;;16.50;99.90;;;;;;5011174;28;20402;-68
2022/06/28 05:07:15;;;;;;;0.00;0.00;;;16.60;99.90;;;;;;5012239;28;20100;-68
2022/06/28 05:09:41;;;;;;;0.00;0.00;;;16.50;99.90;;;;;;5012675;28;20034;-69
2022/06/28 05:12:07;;;;;;;0.00;0.00;;;16.60;99.90;;;;;;5010923;28;20021;-71
2022/06/28 05:14:34;;;;;;;0.00;0.00;;;16.60;99.90;;;;;;5011640;28;20026;-71
2022/06/28 05:17:01;;;;;;;0.55;0.55;;;16.50;99.90;;;;;;5009615;28;20552;-70
2022/06/28 05:19:28;;;;;;;0.25;0.25;;;16.50;99.90;;;;;;5012504;28;20030;-70
2022/06/28 05:21:54;;;;;;;0.15;0.15;;;16.50;99.90;;;;;;5011042;28;20044;-70
2022/06/28 05:24:20;;;;;;;0.10;0.10;;;16.60;99.90;;;;;;5012519;28;20034;-70
2022/06/28 05:26:45;;;;;;;0.95;0.68;;;16.60;99.90;;;;;;5010813;28;20393;-71
2022/06/28 05:29:12;;;;;;;0.10;0.10;;;16.50;99.90;;;;;;5012375;28;20108;-70
2022/06/28 05:31:38;;;;;;;0.10;0.10;;;16.50;99.90;;;;;;5012248;28;20034;-70
2022/06/28 05:34:04;;;;;;;0.00;0.00;;;16.60;99.90;;;;;;5010709;28;20072;-69
2022/06/28 05:36:30;;;;;;;1.08;1.08;;;16.70;99.90;;;;;;5010936;28;20061;-67
2022/06/28 05:38:56;;;;;;;8.00;2.80;;;16.60;99.90;;;;;;5012322;28;20042;-71
2022/06/28 05:41:23;;;;;;;0.75;0.60;;;16.70;99.90;;;;;;5012390;28;20029;-71
2022/06/28 05:43:49;;;;;;;0.00;0.00;;;16.80;99.90;;;;;;5010018;28;20041;-71
2022/06/28 05:46:14;;;;;;;0.17;0.17;;;16.80;99.90;;;;;;5012036;28;20034;-71
2022/06/28 05:48:40;;;;;;;0.08;0.05;;;16.90;99.90;;;;;;5011648;28;20461;-71
2022/06/28 05:51:06;;;;;;;0.43;0.43;;;16.90;99.90;;;;;;5010680;28;20026;-71
2022/06/28 05:53:32;;;;;;;1.38;0.85;;;17.10;99.90;;;;;;5011748;28;20030;-71
2022/06/28 05:55:58;;;;;;;0.73;0.73;;;17.10;99.90;;;;;;5011712;28;20386;-70
2022/06/28 05:58:24;;;;;;;0.00;0.00;;;17.20;99.90;;;;;;5011612;28;20474;-71
2022/06/28 06:00:49;;;;;;;2.17;0.22;;;17.20;99.90;;;;;;5009973;28;20140;-72
2022/06/28 06:03:16;;;;;;;0.00;0.00;;;17.20;99.90;;;;;;5010483;28;20041;-72
2022/06/28 06:05:42;;;;;;;0.00;0.00;;;17.40;99.90;;;;;;5011553;28;20034;-72
2022/06/28 06:08:08;;;;;;;0.25;0.25;;;17.60;99.90;;;;;;5011290;28;20037;-72
2022/06/28 06:10:33;;;;;;;1.17;0.25;;;17.60;99.90;;;;;;5011631;28;20505;-72
2022/06/28 06:13:00;;;;;;;0.32;0.22;;;17.60;99.90;;;;;;5010905;28;20473;-72
2022/06/28 06:15:26;;;;;;;0.03;0.03;;;17.60;99.90;;;;;;5011679;28;20029;-72
2022/06/28 06:17:51;;;;;;;0.03;0.03;;;17.70;99.90;;;;;;5013716;28;20462;-72
2022/06/28 06:20:17;;;;;;;0.28;0.28;;;17.70;99.90;;;;;;5001584;28;20030;-72
2022/06/28 06:22:43;;;;;;;0.00;0.00;;;17.80;99.90;;;;;;4991491;28;20030;-72
2022/06/28 06:25:09;;;;;;;0.10;0.10;;;17.80;99.90;;;;;;4991845;28;20371;-72
2022/06/28 06:27:35;;;;;;;0.43;0.40;;;17.90;99.90;;;;;;4991345;28;20031;-72
2022/06/28 06:30:01;;;;;;;0.00;0.00;;;18.00;99.90;;;;;;4991594;28;20053;-71
2022/06/28 06:32:27;;;;;;;0.22;0.22;;;18.00;99.90;;;;;;5008504;28;20028;-71
2022/06/28 06:34:52;;;;;;;0.17;0.17;;;18.10;99.90;;;;;;5011404;28;20026;-71
2022/06/28 06:37:18;;;;;;;0.10;0.10;;;18.20;99.90;;;;;;5011205;28;20506;-71
2022/06/28 06:39:44;;;;;;;0.08;0.08;;;18.40;99.90;;;;;;5009892;28;20398;-71
2022/06/28 06:42:10;;;;;;;0.32;0.20;;;18.30;99.90;;;;;;5010999;28;20056;-71
2022/06/28 06:44:35;;;;;;;0.88;0.65;;;18.30;99.90;;;;;;5010882;28;20459;-72
2022/06/28 06:47:01;;;;;;;0.00;0.00;;;18.40;99.90;;;;;;5009572;28;20026;-71
2022/06/28 06:49:27;;;;;;;0.00;0.00;;;18.50;99.90;;;;;;5011185;28;20017;-71
2022/06/28 06:51:53;;;;;;;0.00;0.00;;;18.60;99.90;;;;;;5011224;28;20029;-70
2022/06/28 06:54:18;;;;;;;0.20;0.20;;;18.60;99.90;;;;;;5010690;28;20101;-71
2022/06/28 06:56:46;;;;;;;0.38;0.38;;;18.80;99.90;;;;;;5010957;28;20029;-71
2022/06/28 06:59:13;;;;;;;0.05;0.05;;;18.80;99.90;;;;;;5011008;28;20113;-71
2022/06/28 07:01:40;;;;;;;0.00;0.00;;;18.80;99.90;;;;;;5010933;28;20061;-71
2022/06/28 07:04:06;;;;;;;0.15;0.15;;;18.80;99.90;;;;;;5010663;28;20033;-71
2022/06/28 07:06:32;;;;;;;0.10;0.10;;;18.90;99.90;;;;;;5010827;28;20041;-71
2022/06/28 07:08:58;;;;;;;0.00;0.00;;;18.90;99.90;;;;;;5010909;28;20034;-71
2022/06/28 07:11:26;;;;;;;0.65;0.22;;;19.00;99.90;;;;;;5011021;28;20101;-70
2022/06/28 07:13:52;;;;;;;0.00;0.00;;;19.10;99.90;;;;;;5010572;28;20026;-71
2022/06/28 07:16:18;;;;;;;0.00;0.00;;;19.10;99.90;;;;;;5010495;28;20049;-71
2022/06/28 07:18:44;;;;;;;0.00;0.00;;;19.30;99.90;;;;;;5010920;28;20092;-71
2022/06/28 07:21:11;;;;;;;0.05;0.05;;;19.40;99.90;;;;;;5010963;28;20030;-72
2022/06/28 07:23:37;;;;;;;0.13;0.08;;;19.30;99.90;;;;;;5009433;28;20113;-74
2022/06/28 07:26:03;;;;;;;0.10;0.10;;;19.40;99.90;;;;;;5009416;28;20164;-73
2022/06/28 07:28:29;;;;;;;0.38;0.38;;;19.50;99.90;;;;;;5010438;28;20492;-73
2022/06/28 07:30:55;;;;;;;0.00;0.00;;;19.60;99.90;;;;;;5009646;28;20030;-72
2022/06/28 07:33:21;;;;;;;12.80;0.43;;;19.70;99.90;;;;;;5010604;28;20413;-72
2022/06/28 07:35:47;;;;;;;0.00;0.00;;;19.80;99.90;;;;;;5009329;28;20033;-73
2022/06/28 07:38:13;;;;;;;0.00;0.00;;;19.80;99.90;;;;;;5010481;28;20137;-73
2022/06/28 07:40:39;;;;;;;0.03;0.00;;;19.90;99.90;;;;;;5011161;28;20556;-73
2022/06/28 07:43:06;;;;;;;0.03;0.03;;;20.00;99.90;;;;;;5013061;28;20473;-73
2022/06/28 07:45:36;;;;;;;0.15;0.15;;;20.00;99.90;;;;;;5014178;28;20493;-73
2022/06/28 07:48:03;;;;;;;0.40;0.40;;;20.00;99.90;;;;;;5013920;28;20029;-73
2022/06/28 07:53:14;;;;;;;0.00;0.00;;;20.10;99.90;;;;;;5014066;28;20030;-73
2022/06/28 07:55:39;;;;;;;0.00;0.00;;;20.20;99.90;;;;;;5013944;28;20037;-73
2022/06/28 07:58:06;;;;;;;0.00;0.00;;;20.20;99.90;;;;;;5014126;28;20029;-73
2022/06/28 08:00:32;;;;;;;0.03;0.00;;;20.30;99.90;;;;;;5012660;28;20037;-73
2022/06/28 08:02:58;;;;;;;1.00;0.63;;;20.40;99.90;;;;;;5013536;28;20084;-73
2022/06/28 08:05:24;;;;;;;0.20;0.20;;;20.60;99.90;;;;;;5013814;28;20433;-73
2022/06/28 08:07:50;;;;;;;0.43;0.43;;;20.60;99.90;;;;;;5012551;28;20077;-73
2022/06/28 08:10:16;;;;;;;0.20;0.10;;;20.80;99.90;;;;;;4994099;28;20032;-73
2022/06/28 08:12:42;;;;;;;0.05;0.05;;;20.80;99.90;;;;;;5028729;28;20021;-73
2022/06/28 08:15:08;;;;;;;0.10;0.10;;;20.90;99.90;;;;;;5032222;28;20505;-73
2022/06/28 08:17:34;;;;;;;0.43;0.30;;;20.90;99.90;;;;;;5013971;28;20026;-73
2022/06/28 08:20:00;;;;;;;0.15;0.15;;;20.90;99.90;;;;;;5016244;28;20021;-73
2022/06/28 08:22:26;;;;;;;0.50;0.50;;;21.00;99.90;;;;;;5031932;28;20401;-74
2022/06/28 08:24:52;;;;;;;0.00;0.00;;;21.10;99.90;;;;;;5032326;28;20034;-74
2022/06/28 08:27:18;;;;;;;0.00;0.00;;;21.20;99.90;;;;;;5031936;28;20036;-74
2022/06/28 08:29:46;;;;;;;1.65;0.85;;;21.30;99.80;;;;;;5033443;28;20025;-72
2022/06/28 08:32:13;;;;;;;0.00;0.00;;;21.50;99.40;;;;;;5033079;28;20057;-72
2022/06/28 08:34:39;;;;;;;0.15;0.15;;;21.40;99.20;;;;;;5033107;28;20041;-72
2022/06/28 08:37:06;;;;;;;0.00;0.00;;;21.50;99.30;;;;;;5025255;28;20036;-72
2022/06/28 08:39:33;;;;;;;0.00;0.00;;;21.60;99.40;;;;;;5013259;28;20038;-72
2022/06/28 08:42:05;;;;;;;0.00;0.00;;;21.50;98.80;;;;;;5013412;28;20115;-72
2022/06/28 08:44:35;;;;;;;0.10;0.10;;;21.70;98.70;;;;;;5013499;28;20037;-74
2022/06/28 08:47:02;;;;;;;0.10;0.00;;;21.80;97.80;;;;;;5012156;28;20107;-74
2022/06/28 08:49:57;;;;;;;1.20;0.35;;;21.70;98.00;;;;;;5013072;28;20585;-74
2022/06/28 08:52:23;;;;;;;0.00;0.00;;;21.90;97.90;;;;;;5011497;28;20490;-74
2022/06/28 08:54:51;;;;;;;0.00;0.00;;;22.10;98.10;;;;;;5013089;28;20116;-75
2022/06/28 08:57:21;;;;;;;0.00;0.00;;;22.20;97.70;;;;;;5012989;28;20496;-74
2022/06/28 08:59:50;;;;;;;0.45;0.38;;;22.20;97.20;;;;;;5011720;28;20038;-75
2022/06/28 09:02:17;;;;;;;0.38;0.38;;;22.30;96.20;;;;;;5012680;28;20022;-74
2022/06/28 09:04:53;;;;;;;0.00;0.00;;;22.40;96.10;;;;;;5013348;28;20034;-75
2022/06/28 09:07:21;;;;;;;3.90;0.80;;;22.40;96.10;;;;;;5012922;28;20128;-75
2022/06/28 09:09:47;;;;;;;0.00;0.00;;;22.50;96.40;;;;;;5012722;28;20036;-67
2022/06/28 09:12:13;;;;;;;0.00;0.00;;;22.30;96.70;;;;;;5012711;28;20025;-62
2022/06/28 09:14:40;;;;;;;0.00;0.00;;;22.50;95.80;;;;;;5012734;28;20428;-62
2022/06/28 09:17:22;;;;;;;0.00;0.00;;;22.70;96.40;;;;;;5012322;28;20034;-62
2022/06/28 09:19:55;;;;;;;0.30;0.25;;;22.70;96.20;;;;;;5012706;28;20121;-63
2022/06/28 09:22:43;;;;;;;0.00;0.00;;;22.80;95.00;;;;;;5012585;28;20080;-63
2022/06/28 09:25:26;;;;;;;0.10;0.10;;;22.90;94.30;;;;;;5012369;28;20140;-63
2022/06/28 09:27:58;;;;;;;3.72;0.35;;;23.00;94.50;;;;;;5012503;28;20038;-63
2022/06/28 09:30:28;;;;;;;0.00;0.00;;;23.20;94.10;;;;;;5011112;28;20587;-63
2022/06/28 09:32:54;;;;;;;0.15;0.03;;;23.30;93.80;;;;;;5010793;28;20038;-62
2022/06/28 09:35:22;;;;;;;0.00;0.00;;;23.30;93.20;;;;;;5011042;28;20694;-62
2022/06/28 09:37:50;;;;;;;0.00;0.00;;;23.20;93.10;;;;;;5011239;28;20033;-62
2022/06/28 09:40:24;;;;;;;0.90;0.88;;;23.30;94.10;;;;;;5012275;28;20026;-62
2022/06/28 09:43:09;;;;;;;0.20;0.13;;;23.40;93.40;;;;;;5011947;28;20026;-63
2022/06/28 09:45:37;;;;;;;0.00;0.00;;;23.50;92.80;;;;;;5012134;28;20026;-62
2022/06/28 09:48:05;;;;;;;0.00;0.00;;;23.30;93.00;;;;;;5025140;22;20050;-63
2022/06/28 09:50:37;;;;;;;0.00;0.00;;;23.50;93.30;;;;;;5010925;28;20076;-63
2022/06/28 09:53:04;;;;;;;0.20;0.15;;;23.70;92.00;;;;;;5011742;28;20026;-64
2022/06/28 09:55:32;;;;;;;0.00;0.00;;;23.70;92.40;;;;;;5012073;28;20033;-64
2022/06/28 09:58:01;;;;;;;0.75;0.10;;;23.50;91.30;;;;;;4992905;28;20037;-63
2022/06/28 10:00:28;;;;;;;0.00;0.00;;;23.70;91.60;;;;;;4991084;28;20026;-64
2022/06/28 10:02:57;;;;;;;1.60;0.05;;;23.90;91.80;;;;;;4991687;28;20038;-64
2022/06/28 10:05:24;;;;;;;0.00;0.00;;;24.00;91.30;;;;;;4991105;28;20113;-64
2022/06/28 10:07:50;;;;;;;0.20;0.20;;;24.10;90.00;;;;;;4992078;28;20018;-64
2022/06/28 10:10:16;;;;;;;0.00;0.00;;;24.20;90.50;;;;;;4993283;28;20439;-63
2022/06/28 10:15:36;;;;;;;0.00;0.00;;;24.40;90.30;;;;;;4991896;28;20046;-71
2022/06/28 10:18:16;;;;;;;0.00;0.00;;;24.60;88.00;;;;;;5008842;28;20463;-71
2022/06/28 10:20:46;;;;;;;0.00;0.00;;;24.80;86.20;;;;;;4955448;28;20038;-71
2022/06/28 10:23:49;;;;;;;;;;;24.60;87.60;;;;;;4971569;28;20038;-70
2022/06/28 10:26:14;;;;;;;0.00;0.00;;;24.90;88.90;;;;;;4971129;28;19936;-70
2022/06/28 10:29:07;;;;;;;0.00;0.00;;;24.90;86.70;;;;;;4972513;28;20478;-72
2022/06/28 10:31:45;;;;;;;1.90;0.47;;;25.00;87.10;;;;;;4971006;28;20514;-71
2022/06/28 10:34:42;;;;;;;0.10;0.10;;;25.00;86.90;;;;;;4970661;28;20026;-72
2022/06/28 10:37:08;;;;;;;0.10;0.10;;;25.30;87.20;;;;;;4977695;28;20034;-71
2022/06/28 10:39:34;;;;;;;0.00;0.00;;;25.30;84.50;;;;;;5006879;28;20038;-71
2022/06/28 10:41:59;;;;;;;0.00;0.00;;;25.30;85.20;;;;;;5006429;28;20112;-71
2022/06/28 10:44:32;;;;;;;0.80;0.63;;;25.20;84.50;;;;;;4991272;28;20496;-71
2022/06/28 10:47:01;;;;;;;0.10;0.10;;;25.60;84.60;;;;;;4991343;28;20049;-70
2022/06/28 10:49:42;;;;;;;0.00;0.00;;;25.70;84.30;;;;;;4991639;28;20033;-71
2022/06/28 10:52:22;;;;;;;0.13;0.03;;;25.90;84.20;;;;;;4991481;28;20033;-71
2022/06/28 10:54:57;;;;;;;0.20;0.20;;;26.10;80.60;;;;;;5005611;28;20027;-71
2022/06/28 10:57:38;;;;;;;0.15;0.13;;;26.20;80.00;;;;;;4991620;28;20026;-71
2022/06/28 11:00:09;;;;;;;0.00;0.00;;;26.30;78.00;;;;;;5006458;28;20121;-71
2022/06/28 11:03:02;;;;;;;0.10;0.10;;;26.60;78.20;;;;;;4990011;28;20105;-71
2022/06/28 11:05:54;;;;;;;0.00;0.00;;;26.60;76.40;;;;;;4991392;28;20035;-70
2022/06/28 11:08:49;;;;;;;0.00;0.00;;;26.10;74.40;;;;;;5005462;28;20524;-71
2022/06/28 11:11:15;;;;;;;0.00;0.00;;;26.10;74.80;;;;;;4985225;28;20062;-70
2022/06/28 11:13:40;;;;;;;0.00;0.00;;;26.20;74.30;;;;;;4989943;28;20573;-71
2022/06/28 11:16:10;;;;;;;0.00;0.00;;;26.40;76.20;;;;;;4995241;28;20036;-71
2022/06/28 11:18:36;;;;;;;0.15;0.00;;;26.70;75.10;;;;;;4995442;28;20038;-71
2022/06/28 11:21:02;;;;;;;0.00;0.00;;;26.90;74.60;;;;;;4994059;28;20057;-71
2022/06/28 11:23:31;;;;;;;0.28;0.28;;;26.90;74.10;;;;;;4995347;28;20034;-71
2022/06/28 11:29:03;;;;;;;0.20;0.15;;;27.20;72.60;;;;;;4993935;28;20058;-71
2022/06/28 11:31:39;;;;;;;0.10;0.10;;;26.90;73.80;;;;;;4995262;28;20037;-70
2022/06/28 11:34:06;;;;;;;0.00;0.00;;;26.80;74.20;;;;;;4994006;28;20033;-71
2022/06/28 11:36:32;;;;;;;1.95;0.30;;;26.80;73.80;;;;;;4993580;28;20084;-71
2022/06/28 11:39:23;;;;;;;0.32;0.17;;;26.80;74.90;;;;;;4995137;28;20037;-71
2022/06/28 11:41:58;;;;;;;0.30;0.30;;;27.00;74.40;;;;;;4993704;28;20054;-71
2022/06/28 11:44:25;;;;;;;0.00;0.00;;;27.10;73.70;;;;;;4994581;28;20687;-70
2022/06/28 11:46:52;;;;;;;0.00;0.00;;;27.40;71.80;;;;;;4993110;28;20379;-70
2022/06/28 11:49:31;;;;;;;0.00;0.00;;;27.50;74.00;;;;;;4993369;28;20022;-71
2022/06/28 11:51:57;;;;;;;0.05;0.05;;;27.60;75.20;;;;;;4994601;28;20037;-70
2022/06/28 11:54:24;;;;;;;0.10;0.10;;;27.70;73.70;;;;;;4994601;28;20750;-70
2022/06/28 11:56:51;;;;;;;0.00;0.00;;;27.70;73.70;;;;;;4964067;28;20133;-70
2022/06/28 11:59:17;;;;;;;0.00;0.00;;;28.00;72.30;;;;;;4993220;28;20069;-70
2022/06/28 12:01:44;;;;;;;0.00;0.00;;;28.10;71.30;;;;;;4994445;28;20529;-70
2022/06/28 12:04:10;;;;;;;0.05;0.05;;;28.30;72.00;;;;;;4996570;28;20034;-70
2022/06/28 12:06:43;;;;;;;0.00;0.00;;;28.10;71.60;;;;;;5009301;28;20037;-70
2022/06/28 12:09:11;;;;;;;1.90;0.57;;;28.00;71.20;;;;;;4994282;28;20030;-70
2022/06/28 12:11:51;;;;;;;0.00;0.00;;;27.90;71.80;;;;;;4994102;28;20114;-70
2022/06/28 12:14:21;;;;;;;;;;;27.60;71.90;;;;;;4993505;28;20034;-70
2022/06/28 12:16:49;;;;;;;0.10;0.10;;;27.40;71.40;;;;;;4992697;28;19910;-70
2022/06/28 12:19:21;;;;;;;0.20;0.20;;;27.80;71.60;;;;;;4974733;28;20089;-70
2022/06/28 12:22:11;;;;;;;0.03;0.00;;;28.00;72.20;;;;;;4989314;28;20027;-70
2022/06/28 12:24:50;;;;;;;0.50;0.32;;;28.20;71.00;;;;;;4975184;28;20034;-70
2022/06/28 12:27:21;;;;;;;0.10;0.10;;;28.40;71.70;;;;;;4988615;28;20045;-70
2022/06/28 12:29:48;;;;;;;0.00;0.00;;;28.60;69.90;;;;;;4993215;28;20037;-70
2022/06/28 12:32:14;;;;;;;0.28;0.28;;;28.70;70.80;;;;;;4994159;28;20109;-70
2022/06/28 12:34:40;;;;;;;3.70;3.40;;;29.00;69.70;;;;;;4993673;28;20034;-70
2022/06/28 12:37:07;;;;;;;0.55;0.55;;;29.00;71.20;;;;;;4994086;28;20026;-70
2022/06/28 12:39:34;;;;;;;0.00;0.00;;;29.30;70.50;;;;;;4992697;28;20065;-71
2022/06/28 12:42:00;;;;;;;0.20;0.20;;;29.20;68.50;;;;;;4992470;28;20030;-70
2022/06/28 12:44:26;;;;;;;0.00;0.00;;;29.00;68.50;;;;;;4992347;28;20034;-70
2022/06/28 12:46:52;;;;;;;0.20;0.20;;;29.10;68.20;;;;;;4993687;28;20434;-70
2022/06/28 12:49:22;;;;;;;0.35;0.35;;;28.90;69.90;;;;;;4993478;28;20089;-70
2022/06/28 12:51:48;;;;;;;0.30;0.30;;;29.40;68.30;;;;;;4992298;28;20026;-70
2022/06/28 12:54:15;;;;;;;0.00;0.00;;;29.20;68.00;;;;;;4993482;28;20065;-70
2022/06/28 12:56:40;;;;;;;0.00;0.00;;;29.40;67.10;;;;;;5008554;28;20034;-69
2022/06/28 12:59:06;;;;;;;5.20;0.43;;;28.60;68.10;;;;;;4993624;28;20046;-70
2022/06/28 13:01:32;;;;;;;0.47;0.30;;;28.80;66.70;;;;;;4993495;28;20035;-71
2022/06/28 13:03:58;;;;;;;0.00;0.00;;;29.00;67.00;;;;;;4992973;28;20026;-70
2022/06/28 13:06:25;;;;;;;0.00;0.00;;;29.20;67.60;;;;;;4991886;28;20388;-71
2022/06/28 13:08:50;;;;;;;0.30;0.20;;;29.40;68.00;;;;;;4993119;28;20026;-70